PWSweather.com
Personal Weather Stations
Station Observations
KPAMECHA5
Mechanicsburg, PA 17050

Mechanicsburg, PA 17050

Lat: 40.21531, Lon: -77.0395

Elevation: 430

Station Type: Davis 6322

http://MechanicsburgWeather.com

Latest ConditionsUpdated 7:40:04 PM EDT Saturday, Mar 28, 2015
Currently Today's Max Today's Min Today's Average
Temperature 30.8°F-0.7°C 36.0°F2.2°C 26.3°F-3.2°C 30.7°F-0.7°C
Dew Point 14.3°F-9.8°C 23.8°F-4.6°C 14.3°F-9.8°C 20.3°F-6.5°C
Winds 4.5 mph N7.2 kmh N 11.9 mph N19.2 kmh N - 5.5 mph 8.9 kmh
Wind Gusts 7.0 mph11.3 kmh 18.0 mph29.0 kmh - -
Humidity 50% 82% 50% 66%
Pressure 30.06 in1017.9 mb 30.06 in1017.9 mb 29.81 in1009.5 mb -
Hour Temp Dew Point Humidity Winds Wind Gusts Pressure Precip Precip Rate Daily Precip Total
07:40 PM 30.8°F-0.7°C 14.3°F-9.8°C 50% 4.5 mph N7.2 kmh N 7.0 mph11.3 kmh 30.06 in1017.9 mb - 0.00 in0.0 mm 0.00 in0.0 mm
07:30 PM 30.7°F-0.7°C 14.7°F-9.6°C 51% 3.4 mph NNW5.5 kmh NNW 6.0 mph9.7 kmh 30.06 in1017.9 mb - 0.00 in0.0 mm 0.00 in0.0 mm
07:20 PM 30.6°F-0.8°C 15.5°F-9.2°C 53% 3.5 mph NW5.6 kmh NW 7.0 mph11.3 kmh 30.05 in1017.6 mb - 0.00 in0.0 mm 0.00 in0.0 mm
07:10 PM 30.6°F-0.8°C 16.3°F-8.7°C 55% 0.5 mph NW0.8 kmh NW 3.0 mph4.8 kmh 30.05 in1017.6 mb - 0.00 in0.0 mm 0.00 in0.0 mm
07:00 PM 30.5°F-0.8°C 16.2°F-8.8°C 55% 2.8 mph WNW4.5 kmh WNW 6.0 mph9.7 kmh 30.04 in1017.3 mb - 0.00 in0.0 mm 0.00 in0.0 mm
06:50 PM 30.4°F-0.9°C 16.6°F-8.6°C 56% 2.7 mph NW4.3 kmh NW 7.0 mph11.3 kmh 30.04 in1017.3 mb - 0.00 in0.0 mm 0.00 in0.0 mm
06:40 PM 30.5°F-0.8°C 16.7°F-8.5°C 56% 7.7 mph NNW12.4 kmh NNW 11.0 mph17.7 kmh 30.04 in1017.3 mb - 0.00 in0.0 mm 0.00 in0.0 mm
06:30 PM 31.1°F-0.5°C 17.2°F-8.2°C 56% 8.4 mph WNW13.5 kmh WNW 12.0 mph19.3 kmh 30.03 in1016.9 mb - 0.00 in0.0 mm 0.00 in0.0 mm
06:20 PM 30.8°F-0.7°C 17.7°F-7.9°C 58% 7.9 mph NW12.7 kmh NW 12.0 mph19.3 kmh 30.02 in1016.6 mb - 0.00 in0.0 mm 0.00 in0.0 mm
06:10 PM 31.1°F-0.5°C 18.0°F-7.8°C 58% 4.8 mph WNW7.7 kmh WNW 7.0 mph11.3 kmh 30.02 in1016.6 mb - 0.00 in0.0 mm 0.00 in0.0 mm
06:00 PM 31.4°F-0.3°C 17.9°F-7.8°C 57% 5.4 mph NNW8.7 kmh NNW 13.0 mph20.9 kmh 30.02 in1016.6 mb - 0.00 in0.0 mm 0.00 in0.0 mm
05:50 PM 31.0°F-0.6°C 17.5°F-8.1°C 57% 6.1 mph NW9.8 kmh NW 8.0 mph12.9 kmh 30.01 in1016.3 mb - 0.00 in0.0 mm 0.00 in0.0 mm
05:40 PM 31.3°F-0.4°C 17.4°F-8.1°C 56% 6.5 mph NNW10.5 kmh NNW 9.0 mph14.5 kmh 30.01 in1016.3 mb - 0.00 in0.0 mm 0.00 in0.0 mm
05:30 PM 31.6°F-0.2°C 17.3°F-8.2°C 55% 5.2 mph NE8.4 kmh NE 10.0 mph16.1 kmh 30.00 in1015.9 mb - 0.00 in0.0 mm 0.00 in0.0 mm
05:20 PM 31.2°F-0.4°C 17.7°F-7.9°C 57% 5.1 mph N8.2 kmh N 11.0 mph17.7 kmh 30.00 in1015.9 mb - 0.00 in0.0 mm 0.00 in0.0 mm
05:10 PM 31.1°F-0.5°C 18.4°F-7.6°C 59% 7.8 mph NW12.6 kmh NW 16.0 mph25.7 kmh 29.99 in1015.6 mb - 0.00 in0.0 mm 0.00 in0.0 mm
05:00 PM 31.3°F-0.4°C 17.9°F-7.8°C 57% 7.3 mph NNW11.7 kmh NNW 13.0 mph20.9 kmh 29.99 in1015.6 mb - 0.00 in0.0 mm 0.00 in0.0 mm
04:50 PM 31.9°F-0.1°C 18.4°F-7.6°C 57% 6.2 mph N10.0 kmh N 10.0 mph16.1 kmh 29.98 in1015.2 mb - 0.00 in0.0 mm 0.00 in0.0 mm
04:40 PM 33.3°F0.7°C 18.0°F-7.8°C 53% 5.2 mph NW8.4 kmh NW 10.0 mph16.1 kmh 29.98 in1015.2 mb - 0.00 in0.0 mm 0.00 in0.0 mm
04:30 PM 32.6°F0.3°C 19.1°F-7.2°C 57% 9.0 mph NNW14.5 kmh NNW 14.0 mph22.5 kmh 29.97 in1014.9 mb - 0.00 in0.0 mm 0.00 in0.0 mm
04:20 PM 33.0°F0.6°C 18.2°F-7.7°C 54% 7.9 mph NW12.7 kmh NW 10.0 mph16.1 kmh 29.97 in1014.9 mb - 0.00 in0.0 mm 0.00 in0.0 mm
04:10 PM 32.6°F0.3°C 19.4°F-7.0°C 58% 8.2 mph WNW13.2 kmh WNW 12.0 mph19.3 kmh 29.96 in1014.6 mb - 0.00 in0.0 mm 0.00 in0.0 mm
04:00 PM 31.2°F-0.4°C 20.8°F-6.2°C 65% 7.2 mph N11.6 kmh N 11.0 mph17.7 kmh 29.97 in1014.9 mb - 0.00 in0.0 mm 0.00 in0.0 mm
03:50 PM 32.0°F0.0°C 20.4°F-6.4°C 62% 8.4 mph NNW13.5 kmh NNW 14.0 mph22.5 kmh 29.97 in1014.9 mb - 0.00 in0.0 mm 0.00 in0.0 mm
03:40 PM 32.8°F0.4°C 19.6°F-6.9°C 58% 6.3 mph N10.1 kmh N 11.0 mph17.7 kmh 29.96 in1014.6 mb - 0.00 in0.0 mm 0.00 in0.0 mm
03:30 PM 32.1°F0.1°C 19.3°F-7.1°C 59% 8.4 mph NW13.5 kmh NW 11.0 mph17.7 kmh 29.96 in1014.6 mb - 0.00 in0.0 mm 0.00 in0.0 mm
03:20 PM 32.6°F0.3°C 17.3°F-8.2°C 53% 9.6 mph N15.4 kmh N 11.0 mph17.7 kmh 29.95 in1014.2 mb - 0.00 in0.0 mm 0.00 in0.0 mm
03:10 PM 32.8°F0.4°C 17.1°F-8.3°C 52% 7.0 mph NNW11.3 kmh NNW 11.0 mph17.7 kmh 29.95 in1014.2 mb - 0.00 in0.0 mm 0.00 in0.0 mm
03:00 PM 33.7°F0.9°C 17.1°F-8.3°C 50% 7.8 mph N12.6 kmh N 18.0 mph29.0 kmh 29.95 in1014.2 mb - 0.00 in0.0 mm 0.00 in0.0 mm
02:50 PM 32.9°F0.5°C 17.2°F-8.2°C 52% 4.3 mph NW6.9 kmh NW 12.0 mph19.3 kmh 29.95 in1014.2 mb - 0.00 in0.0 mm 0.00 in0.0 mm
02:40 PM 32.1°F0.1°C 16.4°F-8.7°C 52% 7.3 mph NNW11.7 kmh NNW 12.0 mph19.3 kmh 29.95 in1014.2 mb - 0.00 in0.0 mm 0.00 in0.0 mm
02:30 PM 32.9°F0.5°C 16.8°F-8.4°C 51% 8.6 mph NNW13.8 kmh NNW 14.0 mph22.5 kmh 29.95 in1014.2 mb - 0.00 in0.0 mm 0.00 in0.0 mm
02:20 PM 32.3°F0.2°C 18.4°F-7.6°C 56% 9.6 mph W15.4 kmh W 16.0 mph25.7 kmh 29.95 in1014.2 mb - 0.00 in0.0 mm 0.00 in0.0 mm
02:10 PM 32.1°F0.1°C 17.3°F-8.2°C 54% 9.4 mph NNE15.1 kmh NNE 12.0 mph19.3 kmh 29.96 in1014.6 mb - 0.00 in0.0 mm 0.00 in0.0 mm
02:00 PM 32.3°F0.2°C 17.5°F-8.1°C 54% 9.2 mph NW14.8 kmh NW 18.0 mph29.0 kmh 29.95 in1014.2 mb - 0.00 in0.0 mm 0.00 in0.0 mm
01:50 PM 32.5°F0.3°C 18.1°F-7.7°C 55% 6.4 mph N10.3 kmh N 13.0 mph20.9 kmh 29.95 in1014.2 mb - 0.00 in0.0 mm 0.00 in0.0 mm
01:40 PM 31.6°F-0.2°C 18.1°F-7.7°C 57% 10.0 mph NNW16.1 kmh NNW 14.0 mph22.5 kmh 29.95 in1014.2 mb - 0.00 in0.0 mm 0.00 in0.0 mm
01:30 PM 31.5°F-0.3°C 18.8°F-7.3°C 59% 4.1 mph NNW6.6 kmh NNW 13.0 mph20.9 kmh 29.95 in1014.2 mb - 0.00 in0.0 mm 0.00 in0.0 mm
01:20 PM 31.5°F-0.3°C 18.8°F-7.3°C 59% 7.3 mph WNW11.7 kmh WNW 15.0 mph24.1 kmh 29.95 in1014.2 mb - 0.00 in0.0 mm 0.00 in0.0 mm
01:10 PM 31.5°F-0.3°C 18.4°F-7.6°C 58% 6.2 mph NW10.0 kmh NW 9.0 mph14.5 kmh 29.95 in1014.2 mb - 0.00 in0.0 mm 0.00 in0.0 mm
01:00 PM 31.7°F-0.2°C 18.2°F-7.7°C 57% 9.2 mph NNW14.8 kmh NNW 15.0 mph24.1 kmh 29.95 in1014.2 mb - 0.00 in0.0 mm 0.00 in0.0 mm
12:50 PM 31.8°F-0.1°C 19.9°F-6.7°C 61% 5.3 mph NNW8.5 kmh NNW 9.0 mph14.5 kmh 29.95 in1014.2 mb - 0.00 in0.0 mm 0.00 in0.0 mm
12:40 PM 31.4°F-0.3°C 19.9°F-6.7°C 62% 5.5 mph NW8.9 kmh NW 11.0 mph17.7 kmh 29.95 in1014.2 mb - 0.00 in0.0 mm 0.00 in0.0 mm
12:30 PM 31.5°F-0.3°C 18.8°F-7.3°C 59% 7.8 mph WNW12.6 kmh WNW 11.0 mph17.7 kmh 29.95 in1014.2 mb - 0.00 in0.0 mm 0.00 in0.0 mm
12:20 PM 31.0°F-0.6°C 19.5°F-6.9°C 62% 8.1 mph NNW13.0 kmh NNW 14.0 mph22.5 kmh 29.95 in1014.2 mb - 0.00 in0.0 mm 0.00 in0.0 mm
12:10 PM 31.2°F-0.4°C 19.3°F-7.1°C 61% 7.7 mph NNW12.4 kmh NNW 14.0 mph22.5 kmh 29.95 in1014.2 mb - 0.00 in0.0 mm 0.00 in0.0 mm
12:00 PM 30.5°F-0.8°C 19.1°F-7.2°C 62% 8.0 mph NNW12.9 kmh NNW 12.0 mph19.3 kmh 29.95 in1014.2 mb - 0.00 in0.0 mm 0.00 in0.0 mm
11:50 AM 29.9°F-1.2°C 18.8°F-7.3°C 63% 9.1 mph NW14.6 kmh NW 12.0 mph19.3 kmh 29.95 in1014.2 mb - 0.00 in0.0 mm 0.00 in0.0 mm
11:40 AM 30.2°F-1.0°C 19.1°F-7.2°C 63% 6.6 mph NNW10.6 kmh NNW 9.0 mph14.5 kmh 29.95 in1014.2 mb - 0.00 in0.0 mm 0.00 in0.0 mm
11:30 AM 29.9°F-1.2°C 18.8°F-7.3°C 63% 7.0 mph N11.3 kmh N 11.0 mph17.7 kmh 29.95 in1014.2 mb - 0.00 in0.0 mm 0.00 in0.0 mm
11:20 AM 29.6°F-1.3°C 18.9°F-7.3°C 64% 11.9 mph N19.2 kmh N 18.0 mph29.0 kmh 29.95 in1014.2 mb - 0.00 in0.0 mm 0.00 in0.0 mm
11:10 AM 29.3°F-1.5°C 20.0°F-6.7°C 68% 5.4 mph WNW8.7 kmh WNW 11.0 mph17.7 kmh 29.95 in1014.2 mb - 0.00 in0.0 mm 0.00 in0.0 mm
11:00 AM 28.7°F-1.8°C 19.8°F-6.8°C 69% 8.3 mph NNW13.4 kmh NNW 14.0 mph22.5 kmh 29.95 in1014.2 mb - 0.00 in0.0 mm 0.00 in0.0 mm
10:50 AM 28.2°F-2.1°C 21.3°F-5.9°C 75% 5.8 mph NNW9.3 kmh NNW 11.0 mph17.7 kmh 29.95 in1014.2 mb - 0.00 in0.0 mm 0.00 in0.0 mm
10:40 AM 27.5°F-2.5°C 21.2°F-6.0°C 77% 6.2 mph NNW10.0 kmh NNW 7.0 mph11.3 kmh 29.95 in1014.2 mb - 0.00 in0.0 mm 0.00 in0.0 mm
10:30 AM 27.2°F-2.7°C 21.2°F-6.0°C 78% 5.0 mph NW8.0 kmh NW 10.0 mph16.1 kmh 29.95 in1014.2 mb - 0.00 in0.0 mm 0.00 in0.0 mm
10:20 AM 27.1°F-2.7°C 21.5°F-5.8°C 79% 7.8 mph NW12.6 kmh NW 12.0 mph19.3 kmh 29.95 in1014.2 mb - 0.00 in0.0 mm 0.00 in0.0 mm
10:10 AM 26.8°F-2.9°C 21.8°F-5.7°C 81% 5.9 mph NW9.5 kmh NW 12.0 mph19.3 kmh 29.95 in1014.2 mb - 0.00 in0.0 mm 0.00 in0.0 mm
10:00 AM 26.8°F-2.9°C 21.8°F-5.7°C 81% 8.5 mph NNW13.7 kmh NNW 13.0 mph20.9 kmh 29.94 in1013.9 mb - 0.00 in0.0 mm 0.00 in0.0 mm
09:50 AM 26.6°F-3.0°C 21.8°F-5.7°C 82% 4.8 mph N7.7 kmh N 9.0 mph14.5 kmh 29.94 in1013.9 mb - 0.00 in0.0 mm 0.00 in0.0 mm
09:40 AM 26.4°F-3.1°C 21.3°F-5.9°C 81% 5.0 mph NNW8.0 kmh NNW 11.0 mph17.7 kmh 29.93 in1013.5 mb - 0.00 in0.0 mm 0.00 in0.0 mm
09:30 AM 26.6°F-3.0°C 21.6°F-5.8°C 81% 3.4 mph WNW5.5 kmh WNW 7.0 mph11.3 kmh 29.93 in1013.5 mb - 0.00 in0.0 mm 0.00 in0.0 mm
09:20 AM 26.7°F-2.9°C 21.4°F-5.9°C 80% 3.8 mph NNW6.1 kmh NNW 8.0 mph12.9 kmh 29.93 in1013.5 mb - 0.00 in0.0 mm 0.00 in0.0 mm
09:10 AM 26.7°F-2.9°C 21.4°F-5.9°C 80% 2.9 mph N4.7 kmh N 10.0 mph16.1 kmh 29.92 in1013.2 mb - 0.00 in0.0 mm 0.00 in0.0 mm
09:00 AM 26.5°F-3.1°C 21.2°F-6.0°C 80% 4.1 mph NW6.6 kmh NW 10.0 mph16.1 kmh 29.92 in1013.2 mb - 0.00 in0.0 mm 0.00 in0.0 mm
08:50 AM 26.6°F-3.0°C 21.2°F-6.0°C 80% 5.8 mph NNW9.3 kmh NNW 11.0 mph17.7 kmh 29.91 in1012.9 mb - 0.00 in0.0 mm 0.00 in0.0 mm
08:40 AM 26.5°F-3.1°C 21.2°F-6.0°C 80% 5.4 mph NW8.7 kmh NW 12.0 mph19.3 kmh 29.91 in1012.9 mb - 0.00 in0.0 mm 0.00 in0.0 mm
08:30 AM 26.4°F-3.1°C 21.1°F-6.1°C 80% 9.8 mph NW15.8 kmh NW 14.0 mph22.5 kmh 29.91 in1012.9 mb - 0.00 in0.0 mm 0.00 in0.0 mm
08:20 AM 26.4°F-3.1°C 21.1°F-6.1°C 80% 3.3 mph NW5.3 kmh NW 6.0 mph9.7 kmh 29.91 in1012.9 mb - 0.00 in0.0 mm 0.00 in0.0 mm
08:10 AM 26.3°F-3.2°C 20.7°F-6.3°C 79% 5.4 mph NW8.7 kmh NW 8.0 mph12.9 kmh 29.90 in1012.5 mb - 0.00 in0.0 mm 0.00 in0.0 mm
08:00 AM 26.6°F-3.0°C 20.7°F-6.3°C 78% 6.4 mph NW10.3 kmh NW 11.0 mph17.7 kmh 29.90 in1012.5 mb - 0.00 in0.0 mm 0.00 in0.0 mm
07:50 AM 27.0°F-2.8°C 20.1°F-6.6°C 75% 5.2 mph NW8.4 kmh NW 8.0 mph12.9 kmh 29.89 in1012.2 mb - 0.00 in0.0 mm 0.00 in0.0 mm
07:40 AM 27.2°F-2.7°C 20.0°F-6.7°C 74% 6.2 mph NNW10.0 kmh NNW 10.0 mph16.1 kmh 29.89 in1012.2 mb - 0.00 in0.0 mm 0.00 in0.0 mm
07:30 AM 27.3°F-2.6°C 20.1°F-6.6°C 74% 5.4 mph NW8.7 kmh NW 10.0 mph16.1 kmh 29.89 in1012.2 mb - 0.00 in0.0 mm 0.00 in0.0 mm
07:20 AM 27.3°F-2.6°C 20.4°F-6.4°C 75% 3.1 mph NW5.0 kmh NW 13.0 mph20.9 kmh 29.88 in1011.9 mb - 0.00 in0.0 mm 0.00 in0.0 mm
07:10 AM 27.3°F-2.6°C 20.7°F-6.3°C 76% 0.9 mph NW1.4 kmh NW 1.0 mph1.6 kmh 29.88 in1011.9 mb - 0.00 in0.0 mm 0.00 in0.0 mm
07:00 AM 27.5°F-2.5°C 21.5°F-5.8°C 78% 1.5 mph NW2.4 kmh NW 6.0 mph9.7 kmh 29.87 in1011.5 mb - 0.00 in0.0 mm 0.00 in0.0 mm
06:50 AM 27.7°F-2.4°C 22.4°F-5.3°C 80% 5.6 mph NW9.0 kmh NW 7.0 mph11.3 kmh 29.87 in1011.5 mb - 0.00 in0.0 mm 0.00 in0.0 mm
06:40 AM 28.0°F-2.2°C 22.9°F-5.1°C 81% 1.7 mph NW2.7 kmh NW 7.0 mph11.3 kmh 29.86 in1011.2 mb - 0.00 in0.0 mm 0.00 in0.0 mm
06:30 AM 28.1°F-2.2°C 23.0°F-5.0°C 81% 2.7 mph W4.3 kmh W 6.0 mph9.7 kmh 29.86 in1011.2 mb - 0.00 in0.0 mm 0.00 in0.0 mm
06:20 AM 28.1°F-2.2°C 23.0°F-5.0°C 81% 1.7 mph W2.7 kmh W 6.0 mph9.7 kmh 29.86 in1011.2 mb - 0.00 in0.0 mm 0.00 in0.0 mm
06:10 AM 28.1°F-2.2°C 22.7°F-5.2°C 80% 4.3 mph NW6.9 kmh NW 10.0 mph16.1 kmh 29.85 in1010.8 mb - 0.00 in0.0 mm 0.00 in0.0 mm
06:00 AM 28.4°F-2.0°C 23.7°F-4.6°C 82% 5.3 mph N8.5 kmh N 10.0 mph16.1 kmh 29.85 in1010.8 mb - 0.00 in0.0 mm 0.00 in0.0 mm
05:50 AM 28.9°F-1.7°C 23.8°F-4.6°C 81% 3.0 mph NW4.8 kmh NW 10.0 mph16.1 kmh 29.84 in1010.5 mb - 0.00 in0.0 mm 0.00 in0.0 mm
05:40 AM 29.3°F-1.5°C 23.6°F-4.7°C 79% 7.0 mph N11.3 kmh N 11.0 mph17.7 kmh 29.83 in1010.2 mb - 0.00 in0.0 mm 0.00 in0.0 mm
05:30 AM 29.9°F-1.2°C 23.6°F-4.7°C 77% 6.0 mph NW9.7 kmh NW 10.0 mph16.1 kmh 29.84 in1010.5 mb - 0.00 in0.0 mm 0.00 in0.0 mm
05:20 AM 30.5°F-0.8°C 23.2°F-4.9°C 74% 3.2 mph NNW5.1 kmh NNW 10.0 mph16.1 kmh 29.83 in1010.2 mb - 0.00 in0.0 mm 0.00 in0.0 mm
05:10 AM 30.9°F-0.6°C 23.6°F-4.7°C 74% 4.3 mph NNW6.9 kmh NNW 10.0 mph16.1 kmh 29.83 in1010.2 mb - 0.00 in0.0 mm 0.00 in0.0 mm
05:00 AM 31.0°F-0.6°C 23.4°F-4.8°C 73% 5.0 mph NW8.0 kmh NW 11.0 mph17.7 kmh 29.83 in1010.2 mb - 0.00 in0.0 mm 0.00 in0.0 mm
04:50 AM 31.2°F-0.4°C 23.5°F-4.7°C 73% 5.4 mph NNW8.7 kmh NNW 8.0 mph12.9 kmh 29.82 in1009.8 mb - 0.00 in0.0 mm 0.00 in0.0 mm
04:40 AM 31.5°F-0.3°C 23.5°F-4.7°C 72% 5.4 mph N8.7 kmh N 7.0 mph11.3 kmh 29.82 in1009.8 mb - 0.00 in0.0 mm 0.00 in0.0 mm
04:30 AM 31.7°F-0.2°C 23.7°F-4.6°C 72% 4.3 mph NW6.9 kmh NW 10.0 mph16.1 kmh 29.82 in1009.8 mb - 0.00 in0.0 mm 0.00 in0.0 mm
04:20 AM 31.9°F-0.1°C 23.6°F-4.7°C 71% 4.2 mph NW6.8 kmh NW 8.0 mph12.9 kmh 29.82 in1009.8 mb - 0.00 in0.0 mm 0.00 in0.0 mm
04:10 AM 32.0°F0.0°C 23.7°F-4.6°C 71% 2.8 mph NW4.5 kmh NW 8.0 mph12.9 kmh 29.81 in1009.5 mb - 0.00 in0.0 mm 0.00 in0.0 mm
04:00 AM 32.1°F0.1°C 23.4°F-4.8°C 70% 3.1 mph NW5.0 kmh NW 6.0 mph9.7 kmh 29.82 in1009.8 mb - 0.00 in0.0 mm 0.00 in0.0 mm
03:50 AM 32.3°F0.2°C 23.3°F-4.8°C 69% 3.9 mph NW6.3 kmh NW 7.0 mph11.3 kmh 29.81 in1009.5 mb - 0.00 in0.0 mm 0.00 in0.0 mm
03:40 AM 32.5°F0.3°C 22.8°F-5.1°C 67% 3.6 mph NW5.8 kmh NW 7.0 mph11.3 kmh 29.81 in1009.5 mb - 0.00 in0.0 mm 0.00 in0.0 mm
03:30 AM 32.7°F0.4°C 22.9°F-5.1°C 67% 3.0 mph NNW4.8 kmh NNW 6.0 mph9.7 kmh 29.81 in1009.5 mb - 0.00 in0.0 mm 0.00 in0.0 mm
03:20 AM 32.7°F0.4°C 23.0°F-5.0°C 67% 1.6 mph WNW2.6 kmh WNW 8.0 mph12.9 kmh 29.81 in1009.5 mb - 0.00 in0.0 mm 0.00 in0.0 mm
03:10 AM 32.7°F0.4°C 22.6°F-5.2°C 66% 3.9 mph NW6.3 kmh NW 6.0 mph9.7 kmh 29.81 in1009.5 mb - 0.00 in0.0 mm 0.00 in0.0 mm
03:00 AM 32.7°F0.4°C 22.6°F-5.2°C 66% 4.8 mph NNW7.7 kmh NNW 7.0 mph11.3 kmh 29.81 in1009.5 mb - 0.00 in0.0 mm 0.00 in0.0 mm
02:50 AM 32.8°F0.4°C 22.3°F-5.4°C 65% 4.6 mph WNW7.4 kmh WNW 9.0 mph14.5 kmh 29.81 in1009.5 mb - 0.00 in0.0 mm 0.00 in0.0 mm
02:40 AM 33.0°F0.6°C 22.1°F-5.5°C 64% 2.9 mph NW4.7 kmh NW 5.0 mph8.0 kmh 29.81 in1009.5 mb - 0.00 in0.0 mm 0.00 in0.0 mm
02:30 AM 33.1°F0.6°C 21.9°F-5.6°C 63% 1.7 mph NW2.7 kmh NW 5.0 mph8.0 kmh 29.81 in1009.5 mb - 0.00 in0.0 mm 0.00 in0.0 mm
02:20 AM 33.2°F0.7°C 21.6°F-5.8°C 62% 5.1 mph NNW8.2 kmh NNW 9.0 mph14.5 kmh 29.81 in1009.5 mb - 0.00 in0.0 mm 0.00 in0.0 mm
02:10 AM 33.1°F0.6°C 21.1°F-6.1°C 61% 2.9 mph NNW4.7 kmh NNW 7.0 mph11.3 kmh 29.82 in1009.8 mb - 0.00 in0.0 mm 0.00 in0.0 mm
02:00 AM 33.0°F0.6°C 21.0°F-6.1°C 61% 2.2 mph W3.5 kmh W 7.0 mph11.3 kmh 29.82 in1009.8 mb - 0.00 in0.0 mm 0.00 in0.0 mm
01:50 AM 33.2°F0.7°C 20.8°F-6.2°C 60% 1.6 mph NW2.6 kmh NW 5.0 mph8.0 kmh 29.82 in1009.8 mb - 0.00 in0.0 mm 0.00 in0.0 mm
01:40 AM 33.3°F0.7°C 20.9°F-6.2°C 60% 5.0 mph WNW8.0 kmh WNW 8.0 mph12.9 kmh 29.82 in1009.8 mb - 0.00 in0.0 mm 0.00 in0.0 mm
01:30 AM 33.5°F0.8°C 21.0°F-6.1°C 60% 5.8 mph NW9.3 kmh NW 9.0 mph14.5 kmh 29.82 in1009.8 mb - 0.00 in0.0 mm 0.00 in0.0 mm
01:20 AM 33.6°F0.9°C 21.6°F-5.8°C 61% 5.1 mph NNW8.2 kmh NNW 9.0 mph14.5 kmh 29.82 in1009.8 mb - 0.00 in0.0 mm 0.00 in0.0 mm
01:10 AM 33.8°F1.0°C 22.1°F-5.5°C 62% 4.8 mph N7.7 kmh N 11.0 mph17.7 kmh 29.83 in1010.2 mb - 0.00 in0.0 mm 0.00 in0.0 mm
01:00 AM 34.1°F1.2°C 22.4°F-5.3°C 62% 6.6 mph NW10.6 kmh NW 8.0 mph12.9 kmh 29.82 in1009.8 mb - 0.00 in0.0 mm 0.00 in0.0 mm
12:50 AM 34.4°F1.3°C 22.7°F-5.2°C 62% 6.2 mph NW10.0 kmh NW 9.0 mph14.5 kmh 29.83 in1010.2 mb - 0.00 in0.0 mm 0.00 in0.0 mm
12:40 AM 34.4°F1.3°C 23.5°F-4.7°C 64% 3.2 mph NW5.1 kmh NW 9.0 mph14.5 kmh 29.83 in1010.2 mb - 0.00 in0.0 mm 0.00 in0.0 mm
12:30 AM 34.9°F1.6°C 23.6°F-4.7°C 63% 3.1 mph NW5.0 kmh NW 5.0 mph8.0 kmh 29.83 in1010.2 mb - 0.00 in0.0 mm 0.00 in0.0 mm
12:20 AM 35.3°F1.8°C 23.6°F-4.7°C 62% 4.0 mph NW6.4 kmh NW 5.0 mph8.0 kmh 29.82 in1009.8 mb - 0.00 in0.0 mm 0.00 in0.0 mm
12:10 AM 35.7°F2.1°C 23.1°F-4.9°C 60% 5.4 mph NW8.7 kmh NW 13.0 mph20.9 kmh 29.83 in1010.2 mb - 0.00 in0.0 mm 0.00 in0.0 mm
12:00 AM 36.0°F2.2°C 23.5°F-4.7°C 60% 6.7 mph NNW10.8 kmh NNW 9.0 mph14.5 kmh 29.83 in1010.2 mb - 0.00 in0.0 mm 0.00 in0.0 mm